createdAt,value
2023-01-15T00:02:08.050Z,7.51
2023-01-15T00:04:35.104Z,7.33
2023-01-15T00:07:01.830Z,7.33
2023-01-15T00:09:28.591Z,7.42
2023-01-15T00:11:55.380Z,7.41
2023-01-15T00:14:22.334Z,7.23
2023-01-15T00:16:52.580Z,7.42
2023-01-15T00:19:19.425Z,7.34
2023-01-15T00:21:46.228Z,7.29
2023-01-15T00:24:31.774Z,7.24
2023-01-15T00:27:17.314Z,7.20
2023-01-15T00:29:44.349Z,7.30
2023-01-15T00:32:11.175Z,7.26
2023-01-15T00:34:38.038Z,7.39
2023-01-15T00:37:05.178Z,7.30
2023-01-15T00:39:34.688Z,7.21
2023-01-15T00:42:01.923Z,7.21
2023-01-15T00:44:28.848Z,7.26
2023-01-15T00:46:55.545Z,7.26
2023-01-15T00:49:22.360Z,7.03
2023-01-15T00:51:50.170Z,7.25
2023-01-15T00:54:17.999Z,7.37
2023-01-15T00:56:45.051Z,7.42
2023-01-15T00:59:12.158Z,7.37
2023-01-15T01:01:39.486Z,7.44
2023-01-15T01:04:06.745Z,7.47
2023-01-15T01:06:33.511Z,7.49
2023-01-15T01:09:00.244Z,7.36
2023-01-15T01:11:27.114Z,7.46
2023-01-15T01:13:55.580Z,7.43
2023-01-15T01:16:37.896Z,7.56
2023-01-15T01:19:12.818Z,7.23
2023-01-15T01:21:43.749Z,7.49
2023-01-15T01:24:17.700Z,7.47
2023-01-15T01:26:47.149Z,7.32
2023-01-15T01:29:17.130Z,7.80
2023-01-15T01:31:44.248Z,7.36
2023-01-15T01:34:13.143Z,7.50
2023-01-15T01:36:42.945Z,7.50
2023-01-15T01:39:16.247Z,7.68
2023-01-15T01:41:43.845Z,7.57
2023-01-15T01:44:35.278Z,7.69
2023-01-15T01:47:06.633Z,7.73
2023-01-15T01:49:35.240Z,7.70
2023-01-15T01:52:08.347Z,7.72
2023-01-15T01:54:37.868Z,7.56
2023-01-15T01:57:07.442Z,7.43
2023-01-15T01:59:34.673Z,7.83
2023-01-15T02:02:01.688Z,7.84
2023-01-15T02:04:30.943Z,7.79
2023-01-15T02:07:00.925Z,7.81
2023-01-15T02:09:27.900Z,7.76
2023-01-15T02:12:01.876Z,7.79
2023-01-15T02:14:30.897Z,8.22
2023-01-15T02:17:21.454Z,7.86
2023-01-15T02:20:12.856Z,7.82
2023-01-15T02:23:21.800Z,7.96
2023-01-15T02:26:13.798Z,7.79
2023-01-15T02:28:45.561Z,7.72
2023-01-15T02:31:31.427Z,8.06
2023-01-15T02:34:14.638Z,8.19
2023-01-15T02:36:47.586Z,8.09
2023-01-15T02:39:17.192Z,8.17
2023-01-15T02:41:49.153Z,8.14
2023-01-15T02:44:20.221Z,8.15
2023-01-15T02:46:50.340Z,7.96
2023-01-15T02:49:20.830Z,8.30
2023-01-15T02:52:15.164Z,8.08
2023-01-15T02:54:52.732Z,8.09
2023-01-15T02:57:21.773Z,8.32
2023-01-15T02:59:50.554Z,8.25
2023-01-15T03:02:33.826Z,8.47
2023-01-15T03:05:20.745Z,8.46
2023-01-15T03:08:03.407Z,8.35
2023-01-15T03:10:57.369Z,8.45
2023-01-15T03:13:32.244Z,8.64
2023-01-15T03:16:40.620Z,8.61
2023-01-15T03:19:14.458Z,8.68
2023-01-15T03:22:05.734Z,8.90
2023-01-15T03:24:34.731Z,9.00
2023-01-15T03:27:02.476Z,8.80
2023-01-15T03:29:36.448Z,8.62
2023-01-15T03:32:04.390Z,8.81
2023-01-15T03:34:41.028Z,8.94
2023-01-15T03:37:08.089Z,8.97
2023-01-15T03:39:35.452Z,8.94
2023-01-15T03:42:19.867Z,9.12
2023-01-15T03:45:32.289Z,9.05
2023-01-15T03:48:26.787Z,8.95
2023-01-15T03:51:02.753Z,9.08
2023-01-15T03:53:32.757Z,9.08
2023-01-15T03:56:16.063Z,9.00
2023-01-15T03:59:01.210Z,9.29
2023-01-15T04:01:36.080Z,9.39
2023-01-15T04:04:03.600Z,9.01
2023-01-15T04:06:35.438Z,8.89
2023-01-15T04:09:06.901Z,9.03
2023-01-15T04:11:33.813Z,9.01
2023-01-15T04:14:00.707Z,9.38
2023-01-15T04:16:32.868Z,9.13
2023-01-15T04:19:00.462Z,9.07
2023-01-15T04:21:27.434Z,9.10
2023-01-15T04:23:54.388Z,8.85
2023-01-15T04:26:21.392Z,8.90
2023-01-15T04:28:48.421Z,8.95
2023-01-15T04:31:15.951Z,9.24
2023-01-15T04:33:42.851Z,9.05
2023-01-15T04:36:10.152Z,9.09
2023-01-15T04:38:38.663Z,9.22
2023-01-15T04:41:25.415Z,8.79
2023-01-15T04:44:07.759Z,9.26
2023-01-15T04:46:39.335Z,9.07
2023-01-15T04:49:10.048Z,9.05
2023-01-15T04:51:37.567Z,8.85
2023-01-15T04:54:05.942Z,9.22
2023-01-15T04:56:38.555Z,9.23
2023-01-15T04:59:05.428Z,9.13
2023-01-15T05:01:32.792Z,9.20
2023-01-15T05:03:59.687Z,9.10
2023-01-15T05:06:26.807Z,9.11
2023-01-15T05:08:53.864Z,9.12
2023-01-15T05:11:20.813Z,8.86
2023-01-15T05:13:47.691Z,9.12
2023-01-15T05:16:22.145Z,9.00
2023-01-15T05:18:49.098Z,8.88
2023-01-15T05:21:18.804Z,9.09
2023-01-15T05:23:45.734Z,9.06
2023-01-15T05:26:12.745Z,8.89
2023-01-15T05:28:39.991Z,9.05
2023-01-15T05:31:17.125Z,9.22
2023-01-15T05:33:47.099Z,9.21
2023-01-15T05:36:17.299Z,9.22
2023-01-15T05:38:44.260Z,9.23
2023-01-15T05:41:33.990Z,8.94
2023-01-15T05:44:06.999Z,9.29
2023-01-15T05:46:34.802Z,8.96
2023-01-15T05:49:03.435Z,9.28
2023-01-15T05:51:30.992Z,9.11
2023-01-15T05:53:58.673Z,8.97
2023-01-15T05:56:26.022Z,9.19
2023-01-15T05:58:54.033Z,8.95
2023-01-15T06:01:21.972Z,9.38
2023-01-15T06:03:49.393Z,9.27
2023-01-15T06:06:18.685Z,9.00
2023-01-15T06:08:46.594Z,9.03
2023-01-15T06:11:14.035Z,8.88
2023-01-15T06:13:41.365Z,8.93
2023-01-15T06:16:11.031Z,8.99
2023-01-15T06:18:40.864Z,8.78
2023-01-15T06:21:11.055Z,8.95
2023-01-15T06:23:38.866Z,8.85
2023-01-15T06:26:18.811Z,8.98
2023-01-15T06:28:47.103Z,8.85
2023-01-15T06:31:17.997Z,8.73
2023-01-15T06:33:45.270Z,8.69
2023-01-15T06:36:16.156Z,8.76
2023-01-15T06:38:43.934Z,8.62
2023-01-15T06:41:36.457Z,8.93
2023-01-15T06:44:22.430Z,8.78
2023-01-15T06:47:11.201Z,8.83
2023-01-15T06:49:38.387Z,8.74
2023-01-15T06:52:06.649Z,8.58
2023-01-15T06:54:35.042Z,8.55
2023-01-15T06:57:02.134Z,8.61
2023-01-15T06:59:29.411Z,8.60
2023-01-15T07:01:56.290Z,8.55
2023-01-15T07:04:23.236Z,8.24
2023-01-15T07:06:50.067Z,8.49
2023-01-15T07:09:17.117Z,8.51
2023-01-15T07:11:49.904Z,8.63
2023-01-15T07:14:25.042Z,8.43
2023-01-15T07:16:52.926Z,8.45
2023-01-15T07:19:20.500Z,8.32
2023-01-15T07:21:48.047Z,8.09
2023-01-15T07:24:17.625Z,8.43
2023-01-15T07:26:46.000Z,8.42
2023-01-15T07:29:13.876Z,8.30
2023-01-15T07:31:41.219Z,8.43
2023-01-15T07:34:08.813Z,8.49
2023-01-15T07:36:36.897Z,8.38
2023-01-15T07:39:09.772Z,8.54
2023-01-15T07:41:55.036Z,8.50
2023-01-15T07:44:43.853Z,8.38
2023-01-15T07:47:41.729Z,8.62
2023-01-15T07:50:14.979Z,8.34
2023-01-15T07:52:42.217Z,8.24
2023-01-15T07:55:12.818Z,8.71
2023-01-15T07:57:44.202Z,8.54
2023-01-15T08:00:19.249Z,8.38
2023-01-15T08:02:49.906Z,8.61
2023-01-15T08:05:20.226Z,8.35
2023-01-15T08:08:07.559Z,8.46
2023-01-15T08:10:56.186Z,8.49
2023-01-15T08:13:44.695Z,8.58
2023-01-15T08:20:23.065Z,8.12
2023-01-15T08:22:49.869Z,7.99
2023-01-15T08:25:20.509Z,8.04
2023-01-15T08:27:47.720Z,7.84
2023-01-15T08:30:21.017Z,7.60
2023-01-15T08:32:47.931Z,7.52
2023-01-15T08:35:14.973Z,7.14
2023-01-15T08:37:42.418Z,7.08
2023-01-15T08:40:12.041Z,7.08
2023-01-15T08:42:39.253Z,7.20
2023-01-15T08:45:07.047Z,7.18
2023-01-15T08:47:33.815Z,7.18
2023-01-15T08:50:00.560Z,7.20
2023-01-15T08:52:27.318Z,7.24
2023-01-15T08:54:54.081Z,7.14
2023-01-15T08:57:20.810Z,7.03
2023-01-15T08:59:48.100Z,7.01
2023-01-15T09:02:15.563Z,6.97
2023-01-15T09:04:42.504Z,6.90
2023-01-15T09:07:09.448Z,6.79
2023-01-15T09:09:36.251Z,6.82
2023-01-15T09:12:03.016Z,6.76
2023-01-15T09:14:59.547Z,6.79
2023-01-15T09:17:16.663Z,6.70
2023-01-15T09:19:43.425Z,6.68
2023-01-15T09:22:10.148Z,6.53
2023-01-15T09:24:37.209Z,6.66
2023-01-15T09:27:03.944Z,6.69
2023-01-15T09:29:30.812Z,6.45
2023-01-15T09:31:57.559Z,6.31
2023-01-15T09:34:24.339Z,6.32
2023-01-15T09:36:51.392Z,6.08
2023-01-15T09:39:18.143Z,6.11
2023-01-15T09:42:09.372Z,6.26
2023-01-15T09:44:51.829Z,6.33
2023-01-15T09:47:31.344Z,6.29
2023-01-15T09:50:22.913Z,6.35
2023-01-15T09:52:49.546Z,6.30
2023-01-15T09:55:22.706Z,6.13
2023-01-15T09:57:56.886Z,6.25
2023-01-15T10:00:26.822Z,6.25
2023-01-15T10:03:00.285Z,6.20
2023-01-15T10:06:12.342Z,6.16
2023-01-15T10:08:46.324Z,6.27
2023-01-15T10:11:15.558Z,6.24
2023-01-15T10:13:47.542Z,6.14
2023-01-15T10:16:23.584Z,6.26
2023-01-15T10:18:50.700Z,6.26
2023-01-15T10:21:35.960Z,6.22
2023-01-15T10:24:40.321Z,6.23
2023-01-15T10:27:36.698Z,6.05
2023-01-15T10:30:21.139Z,5.87
2023-01-15T10:33:02.360Z,5.73
2023-01-15T10:35:37.057Z,5.65
2023-01-15T10:38:25.123Z,5.36
2023-01-15T10:41:18.999Z,5.61
2023-01-15T10:44:19.630Z,5.68
2023-01-15T10:46:57.032Z,5.66
2023-01-15T10:49:29.573Z,5.69
2023-01-15T10:52:04.334Z,5.68
2023-01-15T10:54:54.608Z,5.69
2023-01-15T10:57:42.307Z,5.72
2023-01-15T11:00:11.592Z,5.73
2023-01-15T11:02:45.911Z,5.71
2023-01-15T11:05:17.465Z,5.77
2023-01-15T11:08:10.352Z,5.73
2023-01-15T11:10:35.668Z,5.62
2023-01-15T11:13:39.461Z,5.51
2023-01-15T11:16:35.378Z,5.51
2023-01-15T11:19:23.863Z,5.32
2023-01-15T11:21:52.789Z,5.43
2023-01-15T11:24:20.927Z,5.42
2023-01-15T11:26:52.536Z,5.45
2023-01-15T11:29:34.202Z,5.41
2023-01-15T11:32:01.033Z,5.41
2023-01-15T11:34:27.834Z,5.36
2023-01-15T11:37:07.253Z,5.37
2023-01-15T11:39:34.045Z,5.25
2023-01-15T11:42:25.615Z,5.24
2023-01-15T11:45:16.499Z,5.21
2023-01-15T11:48:13.424Z,5.19
2023-01-15T11:50:55.823Z,5.28
2023-01-15T11:53:27.628Z,5.12
2023-01-15T11:56:06.423Z,5.06
2023-01-15T11:58:50.628Z,5.07
2023-01-15T12:01:34.997Z,5.17
2023-01-15T12:04:08.413Z,5.22
2023-01-15T12:06:39.900Z,5.15
2023-01-15T12:09:34.318Z,5.24
2023-01-15T12:12:44.720Z,5.28
2023-01-15T12:16:06.004Z,5.24
2023-01-15T12:18:50.415Z,5.29
2023-01-15T12:21:29.412Z,5.30
2023-01-15T12:24:30.657Z,5.28
2023-01-15T12:27:35.430Z,5.28
2023-01-15T12:30:40.324Z,5.28
2023-01-15T12:33:28.183Z,5.28
2023-01-15T12:36:04.145Z,5.19
2023-01-15T12:38:51.223Z,5.07
2023-01-15T12:41:53.959Z,5.00
2023-01-15T12:44:57.165Z,4.77
2023-01-15T12:47:49.424Z,4.56
2023-01-15T12:50:37.972Z,4.61
2023-01-15T12:53:41.675Z,4.57
2023-01-15T12:56:27.301Z,4.51
2023-01-15T12:59:10.695Z,4.46
2023-01-15T13:02:09.800Z,4.40
2023-01-15T13:04:52.402Z,4.42
2023-01-15T13:07:28.605Z,4.39
2023-01-15T13:10:26.170Z,4.51
2023-01-15T13:12:56.201Z,4.49
2023-01-15T13:15:31.303Z,4.27
2023-01-15T13:18:23.447Z,4.53
2023-01-15T13:20:52.597Z,4.41
2023-01-15T13:23:56.240Z,4.57
2023-01-15T13:26:34.851Z,4.56
2023-01-15T13:29:36.764Z,4.55
2023-01-15T13:32:22.925Z,4.42
2023-01-15T13:34:58.883Z,4.56
2023-01-15T13:37:31.698Z,4.37
2023-01-15T13:40:24.117Z,4.45
2023-01-15T13:42:52.456Z,4.44
2023-01-15T13:45:19.255Z,4.41
2023-01-15T13:47:52.934Z,4.22
2023-01-15T13:50:32.004Z,4.40
2023-01-15T13:53:21.003Z,4.36
2023-01-15T13:56:06.139Z,4.22
2023-01-15T13:58:39.815Z,4.19
2023-01-15T14:01:20.736Z,4.19
2023-01-15T14:04:15.673Z,3.98
2023-01-15T14:06:52.913Z,4.11
2023-01-15T14:09:25.416Z,4.21
2023-01-15T14:11:55.557Z,4.16
2023-01-15T14:14:57.124Z,4.05
2023-01-15T14:18:12.475Z,4.13
2023-01-15T14:21:11.809Z,3.91
2023-01-15T14:24:02.818Z,4.13
2023-01-15T14:26:53.325Z,3.73
2023-01-15T14:29:45.519Z,3.94
2023-01-15T14:32:38.083Z,4.09
2023-01-15T14:35:20.335Z,4.02
2023-01-15T14:37:59.490Z,4.01
2023-01-15T14:40:32.792Z,3.90
2023-01-15T14:43:09.577Z,3.83
2023-01-15T14:45:42.217Z,4.09
2023-01-15T14:48:38.592Z,3.98
2023-01-15T14:51:28.743Z,4.15
2023-01-15T14:54:04.309Z,3.91
2023-01-15T14:56:36.473Z,4.15
2023-01-15T14:59:36.573Z,4.05
2023-01-15T15:02:21.080Z,4.13
2023-01-15T15:04:54.164Z,4.07
2023-01-15T15:07:23.246Z,4.17
2023-01-15T15:10:06.087Z,4.12
2023-01-15T15:13:15.272Z,4.16
2023-01-15T15:16:23.285Z,4.04
2023-01-15T15:19:35.072Z,3.81
2023-01-15T15:22:07.001Z,4.15
2023-01-15T15:24:37.079Z,4.04
2023-01-15T15:27:17.406Z,4.01
2023-01-15T15:29:44.416Z,3.93
2023-01-15T15:32:23.734Z,3.84
2023-01-15T15:34:53.312Z,3.84
2023-01-15T15:37:26.041Z,3.83
2023-01-15T15:40:17.088Z,3.72
2023-01-15T15:43:24.374Z,3.89
2023-01-15T15:46:15.177Z,3.48
2023-01-15T15:48:51.226Z,3.46
2023-01-15T15:51:48.626Z,3.34
2023-01-15T15:54:29.835Z,3.45
2023-01-15T15:57:15.957Z,3.45
2023-01-15T15:59:51.951Z,3.55
2023-01-15T16:02:28.691Z,3.53
2023-01-15T16:04:59.172Z,3.40
2023-01-15T16:07:34.347Z,3.24
2023-01-15T16:10:13.171Z,3.39
2023-01-15T16:12:47.181Z,3.21
2023-01-15T16:15:19.705Z,3.18
2023-01-15T16:17:47.179Z,3.17
2023-01-15T16:20:17.750Z,3.11
2023-01-15T16:23:05.679Z,3.12
2023-01-15T16:25:37.139Z,2.83
2023-01-15T16:28:04.998Z,2.94
2023-01-15T16:30:33.096Z,2.88
2023-01-15T16:33:08.110Z,2.47
2023-01-15T16:35:37.390Z,2.45
2023-01-15T16:38:07.111Z,2.71
2023-01-15T16:40:40.115Z,2.61
2023-01-15T16:43:18.424Z,2.66
2023-01-15T16:46:07.783Z,2.25
2023-01-15T16:48:46.315Z,2.65
2023-01-15T16:51:31.648Z,2.66
2023-01-15T16:54:02.218Z,2.56
2023-01-15T16:56:35.208Z,2.49
2023-01-15T16:59:02.285Z,2.55
2023-01-15T17:01:38.402Z,2.44
2023-01-15T17:04:20.785Z,2.27
2023-01-15T17:07:06.661Z,2.32
2023-01-15T17:09:36.874Z,2.26
2023-01-15T17:12:22.923Z,2.02
2023-01-15T17:14:49.821Z,2.15
2023-01-15T17:17:27.822Z,2.03
2023-01-15T17:19:57.173Z,2.11
2023-01-15T17:22:30.860Z,2.02
2023-01-15T17:25:00.444Z,1.88
2023-01-15T17:27:29.847Z,1.99
2023-01-15T17:29:56.804Z,1.82
2023-01-15T17:32:36.344Z,1.94
2023-01-15T17:35:03.337Z,1.86
2023-01-15T17:37:30.177Z,1.72
2023-01-15T17:39:56.956Z,1.62
2023-01-15T17:42:23.745Z,1.60
2023-01-15T17:44:50.622Z,1.68
2023-01-15T17:47:17.392Z,1.58
2023-01-15T17:49:44.175Z,1.65
2023-01-15T17:52:19.084Z,1.65
2023-01-15T17:55:07.526Z,1.65
2023-01-15T17:57:52.616Z,1.52
2023-01-15T18:00:38.245Z,1.50
2023-01-15T18:03:24.003Z,1.45
2023-01-15T18:05:51.846Z,1.42
2023-01-15T18:08:19.030Z,1.30
2023-01-15T18:10:45.907Z,1.33
2023-01-15T18:13:12.932Z,1.36
2023-01-15T18:15:39.707Z,1.67
2023-01-15T18:18:06.564Z,1.69
2023-01-15T18:20:33.991Z,1.68
2023-01-15T18:23:00.891Z,1.78
2023-01-15T18:25:27.879Z,1.44
2023-01-15T18:27:54.741Z,1.53
2023-01-15T18:30:21.675Z,1.55
2023-01-15T18:32:48.621Z,1.63
2023-01-15T18:35:16.072Z,1.63
2023-01-15T18:37:43.076Z,1.52
2023-01-15T18:40:11.683Z,1.64
2023-01-15T18:42:58.435Z,1.68
2023-01-15T18:45:44.406Z,1.34
2023-01-15T18:48:11.196Z,1.57
2023-01-15T18:50:38.132Z,1.53
2023-01-15T18:53:04.958Z,1.68
2023-01-15T18:55:31.786Z,1.41
2023-01-15T18:57:58.671Z,1.46
2023-01-15T19:00:25.767Z,1.53
2023-01-15T19:02:52.670Z,1.28
2023-01-15T19:05:20.133Z,1.29
2023-01-15T19:07:47.402Z,1.18
2023-01-15T19:10:16.642Z,1.36
2023-01-15T19:12:44.849Z,1.37
2023-01-15T19:15:36.124Z,1.22
2023-01-15T19:18:22.758Z,1.23
2023-01-15T19:20:49.849Z,1.32
2023-01-15T19:23:16.736Z,1.37
2023-01-15T19:25:45.716Z,1.38
2023-01-15T19:28:17.694Z,1.05
2023-01-15T19:31:10.422Z,1.10
2023-01-15T19:33:37.377Z,1.15
2023-01-15T19:36:04.759Z,1.19
2023-01-15T19:38:33.627Z,1.22
2023-01-15T19:41:20.397Z,1.12
2023-01-15T19:44:05.510Z,1.43
2023-01-15T19:46:58.056Z,1.26
2023-01-15T19:49:43.680Z,1.25
2023-01-15T19:52:29.364Z,1.04
2023-01-15T19:55:00.012Z,0.91
2023-01-15T19:57:29.713Z,1.09
2023-01-15T19:59:56.608Z,1.19
2023-01-15T20:02:23.414Z,0.97
2023-01-15T20:04:50.690Z,0.91
2023-01-15T20:07:17.653Z,0.96
2023-01-15T20:09:45.000Z,0.91
2023-01-15T20:12:31.394Z,0.95
2023-01-15T20:14:59.108Z,1.11
2023-01-15T20:17:29.407Z,0.89
2023-01-15T20:19:56.701Z,0.95
2023-01-15T20:22:27.577Z,0.85
2023-01-15T20:24:54.505Z,0.96
2023-01-15T20:27:21.645Z,0.97
2023-01-15T20:30:17.914Z,0.86
2023-01-15T20:32:47.630Z,1.02
2023-01-15T20:35:19.726Z,1.08
2023-01-15T20:37:48.129Z,0.96
2023-01-15T20:40:18.518Z,0.69
2023-01-15T20:43:04.163Z,0.91
2023-01-15T20:45:31.237Z,1.02
2023-01-15T20:48:13.386Z,0.86
2023-01-15T20:50:43.900Z,1.11
2023-01-15T20:53:11.234Z,0.99
2023-01-15T20:55:53.858Z,1.09
2023-01-15T20:58:23.062Z,0.82
2023-01-15T21:00:50.885Z,0.98
2023-01-15T21:03:18.174Z,0.77
2023-01-15T21:05:45.476Z,0.77
2023-01-15T21:08:12.558Z,0.98
2023-01-15T21:10:40.801Z,0.91
2023-01-15T21:13:07.860Z,0.99
2023-01-15T21:15:34.709Z,0.76
2023-01-15T21:18:01.506Z,1.01
2023-01-15T21:20:28.439Z,0.97
2023-01-15T21:22:57.325Z,0.85
2023-01-15T21:25:24.326Z,0.86
2023-01-15T21:27:52.011Z,1.07
2023-01-15T21:30:18.993Z,0.78
2023-01-15T21:32:46.535Z,0.86
2023-01-15T21:35:13.339Z,0.85
2023-01-15T21:37:40.117Z,0.76
2023-01-15T21:40:08.058Z,0.70
2023-01-15T21:42:53.258Z,0.74
2023-01-15T21:45:20.209Z,0.83
2023-01-15T21:47:47.068Z,0.92
2023-01-15T21:50:13.944Z,0.78
2023-01-15T21:52:40.696Z,0.89
2023-01-15T21:55:07.972Z,0.91
2023-01-15T21:57:34.836Z,0.94
2023-01-15T22:00:01.656Z,0.91
2023-01-15T22:02:29.988Z,0.90
2023-01-15T22:04:56.863Z,0.85
2023-01-15T22:07:23.759Z,1.03
2023-01-15T22:09:51.103Z,0.94
2023-01-15T22:12:18.197Z,1.06
2023-01-15T22:14:45.110Z,1.09
2023-01-15T22:17:11.876Z,0.98
2023-01-15T22:19:38.823Z,1.09
2023-01-15T22:22:10.971Z,1.02
2023-01-15T22:24:40.507Z,0.94
2023-01-15T22:27:09.288Z,0.98
2023-01-15T22:29:40.924Z,0.73
2023-01-15T22:32:10.718Z,1.00
2023-01-15T22:34:37.619Z,0.88
2023-01-15T22:37:04.800Z,0.69
2023-01-15T22:39:31.863Z,0.75
2023-01-15T22:42:17.121Z,0.96
2023-01-15T22:44:45.231Z,0.93
2023-01-15T22:47:12.371Z,0.82
2023-01-15T22:49:39.214Z,0.76
2023-01-15T22:52:06.399Z,0.78
2023-01-15T22:54:33.341Z,0.83
2023-01-15T22:57:00.186Z,0.85
2023-01-15T22:59:27.152Z,0.77
2023-01-15T23:01:54.230Z,0.80
2023-01-15T23:04:24.340Z,0.88
2023-01-15T23:06:52.854Z,0.94
2023-01-15T23:09:23.033Z,0.70
2023-01-15T23:11:51.652Z,0.93
2023-01-15T23:14:21.488Z,0.69
2023-01-15T23:16:49.237Z,0.87
2023-01-15T23:19:17.644Z,0.86
2023-01-15T23:21:44.520Z,0.75
2023-01-15T23:24:11.966Z,0.86
2023-01-15T23:26:39.219Z,0.75
2023-01-15T23:29:06.460Z,0.58
2023-01-15T23:31:33.651Z,0.56
2023-01-15T23:34:00.671Z,0.59
2023-01-15T23:36:27.640Z,0.52
2023-01-15T23:38:54.792Z,0.68
2023-01-15T23:41:43.749Z,0.80
2023-01-15T23:44:38.235Z,0.71
2023-01-15T23:47:07.588Z,0.91
2023-01-15T23:49:35.012Z,0.65
2023-01-15T23:52:02.345Z,0.76
2023-01-15T23:54:30.943Z,0.88
2023-01-15T23:56:59.732Z,0.63
2023-01-15T23:59:26.711Z,0.48
